createdAt,value
2022-10-06T00:01:38.730Z,71.40
2022-10-06T00:04:05.474Z,71.40
2022-10-06T00:06:35.006Z,71.40
2022-10-06T00:09:01.593Z,71.70
2022-10-06T00:11:30.477Z,71.70
2022-10-06T00:13:59.807Z,71.90
2022-10-06T00:16:26.450Z,71.80
2022-10-06T00:18:58.595Z,71.80
2022-10-06T00:21:25.287Z,71.80
2022-10-06T00:23:51.953Z,71.70
2022-10-06T00:26:18.681Z,71.60
2022-10-06T00:28:50.630Z,71.60
2022-10-06T00:31:20.553Z,72.10
2022-10-06T00:33:48.721Z,71.80
2022-10-06T00:36:15.489Z,72.00
2022-10-06T00:38:45.151Z,71.90
2022-10-06T00:41:19.414Z,71.90
2022-10-06T00:44:12.200Z,72.10
2022-10-06T00:46:51.886Z,72.40
2022-10-06T00:49:30.736Z,72.50
2022-10-06T00:52:06.715Z,72.70
2022-10-06T00:54:37.958Z,72.80
2022-10-06T00:57:07.117Z,72.40
2022-10-06T00:59:34.972Z,72.80
2022-10-06T01:02:13.370Z,73.00
2022-10-06T01:04:46.985Z,73.70
2022-10-06T01:07:13.926Z,73.20
2022-10-06T01:09:40.925Z,73.00
2022-10-06T01:12:08.691Z,73.10
2022-10-06T01:14:37.593Z,73.20
2022-10-06T01:17:22.008Z,73.20
2022-10-06T01:19:55.130Z,73.80
2022-10-06T01:22:31.270Z,73.40
2022-10-06T01:25:00.481Z,73.40
2022-10-06T01:27:31.449Z,72.70
2022-10-06T01:30:01.988Z,72.70
2022-10-06T01:32:33.982Z,73.40
2022-10-06T01:35:08.822Z,73.60
2022-10-06T01:37:35.976Z,73.20
2022-10-06T01:40:04.105Z,73.00
2022-10-06T01:42:32.938Z,72.90
2022-10-06T01:45:02.260Z,72.60
2022-10-06T01:47:36.778Z,72.50
2022-10-06T01:50:05.405Z,72.20
2022-10-06T01:52:34.514Z,72.00
2022-10-06T01:55:01.356Z,72.00
2022-10-06T01:57:29.640Z,71.90
2022-10-06T01:59:56.708Z,71.80
2022-10-06T02:02:23.942Z,71.60
2022-10-06T02:04:50.590Z,71.50
2022-10-06T02:07:22.548Z,71.50
2022-10-06T02:09:49.161Z,71.80
2022-10-06T02:12:19.453Z,71.70
2022-10-06T02:14:46.301Z,71.60
2022-10-06T02:17:13.159Z,71.80
2022-10-06T02:19:39.782Z,72.00
2022-10-06T02:22:06.505Z,72.20
2022-10-06T02:24:33.431Z,72.10
2022-10-06T02:27:00.725Z,72.00
2022-10-06T02:29:27.574Z,71.70
2022-10-06T02:31:55.723Z,71.90
2022-10-06T02:34:22.734Z,71.80
2022-10-06T02:36:49.409Z,72.20
2022-10-06T02:39:16.552Z,71.60
2022-10-06T02:41:43.220Z,71.70
2022-10-06T02:44:09.853Z,71.70
2022-10-06T02:46:38.086Z,71.60
2022-10-06T02:49:05.660Z,71.70
2022-10-06T02:51:34.173Z,71.50
2022-10-06T02:54:01.110Z,71.60
2022-10-06T02:56:27.804Z,71.70
2022-10-06T02:58:54.605Z,71.70
2022-10-06T03:01:29.699Z,71.60
2022-10-06T03:03:59.658Z,72.20
2022-10-06T03:06:30.890Z,71.30
2022-10-06T03:09:23.952Z,71.30
2022-10-06T03:11:53.080Z,71.30
2022-10-06T03:14:32.605Z,71.40
2022-10-06T03:16:59.242Z,71.10
2022-10-06T03:19:28.837Z,71.10
2022-10-06T03:21:59.890Z,71.20
2022-10-06T03:24:38.148Z,71.30
2022-10-06T03:27:05.399Z,71.10
2022-10-06T03:29:32.005Z,70.90
2022-10-06T03:32:03.681Z,71.10
2022-10-06T03:34:30.691Z,71.20
2022-10-06T03:36:59.116Z,70.90
2022-10-06T03:39:26.954Z,70.80
2022-10-06T03:41:53.600Z,70.80
2022-10-06T03:44:22.607Z,70.80
2022-10-06T03:46:49.314Z,70.50
2022-10-06T03:49:16.033Z,70.50
2022-10-06T03:51:43.154Z,70.40
2022-10-06T03:54:18.606Z,70.40
2022-10-06T03:56:49.620Z,70.20
2022-10-06T03:59:17.546Z,69.90
2022-10-06T04:01:47.441Z,69.80
2022-10-06T04:04:22.574Z,70.00
2022-10-06T04:06:53.713Z,70.20
2022-10-06T04:09:23.502Z,69.90
2022-10-06T04:11:52.583Z,69.90
2022-10-06T04:14:20.281Z,69.90
2022-10-06T04:16:50.933Z,69.80
2022-10-06T04:19:31.360Z,69.90
2022-10-06T04:22:00.814Z,69.70
2022-10-06T04:24:27.437Z,69.60
2022-10-06T04:27:14.074Z,69.70
2022-10-06T04:29:41.392Z,69.60
2022-10-06T04:32:11.350Z,69.50
2022-10-06T04:34:38.169Z,69.60
2022-10-06T04:37:04.826Z,69.70
2022-10-06T04:39:31.810Z,69.70
2022-10-06T04:41:58.682Z,69.60
2022-10-06T04:44:28.805Z,69.50
2022-10-06T04:47:00.338Z,69.40
2022-10-06T04:49:27.232Z,69.40
2022-10-06T04:51:57.303Z,69.40
2022-10-06T04:54:25.009Z,69.20
2022-10-06T04:56:57.080Z,69.10
2022-10-06T04:59:45.453Z,68.90
2022-10-06T05:02:14.086Z,68.80
2022-10-06T05:04:45.295Z,68.80
2022-10-06T05:07:13.568Z,68.60
2022-10-06T05:09:40.893Z,68.60
2022-10-06T05:12:10.143Z,68.70
2022-10-06T05:14:36.920Z,68.60
2022-10-06T05:17:04.138Z,68.50
2022-10-06T05:19:31.339Z,68.40
2022-10-06T05:21:57.951Z,68.30
2022-10-06T05:24:27.720Z,68.30
2022-10-06T05:26:58.330Z,68.30
2022-10-06T05:29:27.848Z,68.40
2022-10-06T05:31:55.425Z,68.30
2022-10-06T05:34:22.192Z,68.30
2022-10-06T05:36:49.174Z,68.20
2022-10-06T05:39:15.894Z,68.20
2022-10-06T05:41:49.898Z,68.10
2022-10-06T05:44:16.534Z,68.00
2022-10-06T05:46:44.459Z,68.70
2022-10-06T05:49:14.396Z,68.70
2022-10-06T05:52:01.260Z,68.20
2022-10-06T05:54:31.342Z,68.10
2022-10-06T05:56:57.969Z,68.00
2022-10-06T05:59:24.638Z,68.00
2022-10-06T06:01:53.753Z,68.10
2022-10-06T06:04:31.675Z,68.00
2022-10-06T06:07:00.164Z,67.90
2022-10-06T06:09:28.700Z,67.80
2022-10-06T06:12:00.213Z,67.90
2022-10-06T06:14:53.118Z,67.80
2022-10-06T06:17:23.728Z,67.80
2022-10-06T06:19:50.870Z,67.70
2022-10-06T06:22:17.485Z,67.80
2022-10-06T06:24:46.372Z,67.80
2022-10-06T06:27:14.156Z,67.70
2022-10-06T06:29:43.644Z,67.80
2022-10-06T06:32:13.053Z,67.70
2022-10-06T06:34:40.894Z,67.80
2022-10-06T06:37:15.121Z,67.80
2022-10-06T06:39:42.739Z,67.70
2022-10-06T06:42:09.382Z,67.70
2022-10-06T06:44:41.477Z,68.30
2022-10-06T06:47:20.799Z,67.80
2022-10-06T06:49:50.126Z,67.60
2022-10-06T06:52:17.183Z,67.60
2022-10-06T06:54:43.814Z,67.60
2022-10-06T06:57:13.738Z,67.60
2022-10-06T06:59:40.572Z,67.60
2022-10-06T07:02:11.707Z,67.70
2022-10-06T07:04:43.713Z,67.70
2022-10-06T07:07:12.991Z,67.60
2022-10-06T07:09:39.650Z,67.60
2022-10-06T07:12:11.883Z,67.70
2022-10-06T07:15:03.188Z,67.60
2022-10-06T07:17:51.299Z,67.50
2022-10-06T07:20:36.394Z,67.60
2022-10-06T07:23:23.179Z,67.60
2022-10-06T07:25:53.005Z,67.50
2022-10-06T07:28:21.754Z,67.70
2022-10-06T07:30:48.384Z,67.70
2022-10-06T07:33:19.141Z,67.60
2022-10-06T07:35:47.129Z,67.60
2022-10-06T07:38:18.577Z,67.60
2022-10-06T07:41:07.654Z,67.70
2022-10-06T07:43:40.269Z,67.70
2022-10-06T07:46:13.800Z,67.30
2022-10-06T07:48:48.582Z,67.60
2022-10-06T07:51:17.144Z,67.50
2022-10-06T07:53:50.026Z,67.50
2022-10-06T07:56:23.196Z,67.50
2022-10-06T07:58:53.864Z,67.60
2022-10-06T08:01:20.898Z,67.70
2022-10-06T08:03:50.379Z,67.60
2022-10-06T08:06:18.790Z,67.50
2022-10-06T08:08:52.484Z,67.60
2022-10-06T08:11:22.521Z,67.50
2022-10-06T08:13:51.621Z,67.60
2022-10-06T08:16:21.607Z,67.40
2022-10-06T08:18:50.589Z,67.60
2022-10-06T08:21:22.938Z,67.70
2022-10-06T08:23:51.287Z,67.60
2022-10-06T08:26:20.010Z,67.20
2022-10-06T08:28:54.456Z,66.90
2022-10-06T08:31:22.684Z,67.20
2022-10-06T08:33:54.955Z,67.10
2022-10-06T08:36:21.658Z,66.90
2022-10-06T08:38:51.035Z,66.70
2022-10-06T08:41:22.445Z,66.70
2022-10-06T08:44:00.440Z,66.50
2022-10-06T08:46:35.962Z,66.40
2022-10-06T08:49:02.903Z,66.10
2022-10-06T08:52:17.719Z,66.10
2022-10-06T08:55:12.644Z,65.90
2022-10-06T08:57:54.289Z,66.10
2022-10-06T09:00:22.160Z,66.40
2022-10-06T09:02:50.570Z,65.60
2022-10-06T09:05:25.155Z,65.50
2022-10-06T09:08:10.806Z,65.20
2022-10-06T09:10:59.055Z,65.20
2022-10-06T09:13:30.781Z,64.90
2022-10-06T09:16:07.555Z,64.80
2022-10-06T09:19:07.207Z,64.70
2022-10-06T09:21:41.750Z,64.60
2022-10-06T09:24:37.276Z,64.40
2022-10-06T09:27:24.257Z,63.90
2022-10-06T09:29:52.839Z,64.50
2022-10-06T09:32:23.979Z,64.30
2022-10-06T09:34:56.397Z,63.90
2022-10-06T09:37:23.362Z,64.00
2022-10-06T09:39:52.091Z,63.70
2022-10-06T09:42:25.060Z,63.40
2022-10-06T09:45:00.691Z,62.20
2022-10-06T09:47:33.250Z,62.00
2022-10-06T09:50:09.977Z,61.80
2022-10-06T09:52:36.608Z,62.00
2022-10-06T09:55:14.975Z,61.70
2022-10-06T09:57:53.184Z,61.00
2022-10-06T10:00:35.837Z,59.60
2022-10-06T10:03:12.006Z,59.70
2022-10-06T10:05:49.593Z,60.40
2022-10-06T10:08:25.603Z,60.30
2022-10-06T10:11:37.101Z,60.70
2022-10-06T10:14:04.037Z,59.80
2022-10-06T10:16:35.669Z,59.40
2022-10-06T10:19:05.582Z,59.00
2022-10-06T10:21:34.409Z,58.90
2022-10-06T10:24:05.077Z,58.60
2022-10-06T10:26:35.758Z,58.30
2022-10-06T10:29:11.300Z,58.60
2022-10-06T10:32:15.221Z,58.00
2022-10-06T10:34:59.900Z,57.40
2022-10-06T10:37:46.398Z,57.60
2022-10-06T10:40:25.411Z,57.60
2022-10-06T10:43:11.444Z,57.60
2022-10-06T10:45:50.841Z,57.60
2022-10-06T10:48:32.394Z,57.20
2022-10-06T10:51:20.037Z,56.80
2022-10-06T10:53:51.681Z,56.50
2022-10-06T10:56:23.319Z,56.60
2022-10-06T10:58:56.201Z,57.10
2022-10-06T11:01:41.542Z,56.90
2022-10-06T11:04:13.340Z,55.70
2022-10-06T11:06:48.003Z,56.00
2022-10-06T11:09:44.505Z,56.50
2022-10-06T11:12:39.247Z,55.50
2022-10-06T11:15:18.962Z,55.00
2022-10-06T11:17:47.097Z,55.30
2022-10-06T11:20:33.009Z,55.20
2022-10-06T11:23:24.174Z,55.00
2022-10-06T11:26:24.586Z,54.30
2022-10-06T11:29:04.680Z,54.30
2022-10-06T11:31:51.291Z,54.10
2022-10-06T11:34:18.002Z,54.90
2022-10-06T11:37:26.225Z,54.90
2022-10-06T11:40:20.807Z,54.30
2022-10-06T11:42:55.795Z,53.70
2022-10-06T11:45:49.187Z,54.20
2022-10-06T11:48:18.985Z,53.60
2022-10-06T11:50:49.074Z,54.50
2022-10-06T11:53:39.238Z,54.30
2022-10-06T11:56:17.899Z,53.70
2022-10-06T11:58:56.626Z,53.20
2022-10-06T12:01:35.110Z,52.40
2022-10-06T12:04:10.691Z,53.20
2022-10-06T12:06:45.851Z,52.90
2022-10-06T12:09:28.095Z,52.40
2022-10-06T12:11:58.678Z,52.30
2022-10-06T12:16:55.361Z,52.30
2022-10-06T12:17:56.629Z,51.50
2022-10-06T12:20:43.365Z,51.50
2022-10-06T12:23:09.903Z,51.70
2022-10-06T12:25:48.730Z,52.20
2022-10-06T12:28:22.930Z,51.00
2022-10-06T12:31:14.528Z,51.70
2022-10-06T12:33:45.638Z,51.60
2022-10-06T12:36:22.544Z,51.60
2022-10-06T12:39:06.946Z,50.60
2022-10-06T12:42:02.378Z,50.10
2022-10-06T12:44:40.626Z,50.20
2022-10-06T12:47:27.144Z,50.20
2022-10-06T12:50:02.988Z,49.80
2022-10-06T12:52:48.229Z,49.10
2022-10-06T12:55:42.093Z,49.90
2022-10-06T12:58:26.158Z,48.90
2022-10-06T13:00:53.401Z,48.90
2022-10-06T13:03:24.810Z,48.50
2022-10-06T13:06:04.361Z,48.50
2022-10-06T13:08:34.244Z,48.30
2022-10-06T13:11:20.907Z,49.00
2022-10-06T13:13:55.404Z,48.00
2022-10-06T13:16:39.155Z,48.10
2022-10-06T13:19:13.610Z,47.70
2022-10-06T13:21:40.237Z,47.90
2022-10-06T13:24:12.288Z,47.60
2022-10-06T13:26:40.414Z,47.90
2022-10-06T13:29:22.570Z,47.60
2022-10-06T13:31:54.411Z,46.60
2022-10-06T13:34:34.670Z,47.20
2022-10-06T13:37:01.966Z,47.30
2022-10-06T13:39:31.672Z,48.90
2022-10-06T13:42:10.078Z,48.60
2022-10-06T13:44:55.350Z,46.90
2022-10-06T13:47:25.571Z,45.20
2022-10-06T13:50:27.358Z,44.60
2022-10-06T13:52:54.101Z,42.80
2022-10-06T13:55:28.592Z,42.60
2022-10-06T13:58:00.971Z,39.30
2022-10-06T14:00:45.851Z,37.70
2022-10-06T14:03:23.609Z,37.70
2022-10-06T14:05:52.344Z,34.90
2022-10-06T14:08:29.781Z,35.10
2022-10-06T14:11:10.983Z,32.50
2022-10-06T14:14:01.554Z,33.10
2022-10-06T14:16:32.166Z,32.00
2022-10-06T14:19:04.310Z,30.70
2022-10-06T14:21:45.339Z,30.40
2022-10-06T14:24:20.488Z,29.50
2022-10-06T14:26:55.552Z,29.00
2022-10-06T14:29:27.753Z,29.40
2022-10-06T14:31:54.479Z,29.40
2022-10-06T14:34:28.529Z,29.00
2022-10-06T14:36:57.613Z,27.70
2022-10-06T14:39:28.338Z,28.00
2022-10-06T14:41:54.922Z,27.60
2022-10-06T14:44:22.004Z,27.60
2022-10-06T14:46:49.384Z,27.70
2022-10-06T14:49:21.886Z,27.50
2022-10-06T14:51:53.266Z,27.50
2022-10-06T14:54:20.188Z,27.50
2022-10-06T14:56:46.858Z,27.40
2022-10-06T14:59:17.025Z,27.50
2022-10-06T15:01:44.200Z,27.30
2022-10-06T15:04:13.240Z,27.20
2022-10-06T15:06:59.307Z,27.10
2022-10-06T15:09:28.771Z,26.80
2022-10-06T15:11:57.719Z,26.80
2022-10-06T15:14:24.406Z,26.70
2022-10-06T15:16:51.732Z,26.60
2022-10-06T15:19:18.458Z,26.50
2022-10-06T15:21:45.396Z,26.20
2022-10-06T15:24:17.038Z,25.80
2022-10-06T15:27:25.046Z,25.60
2022-10-06T15:29:52.060Z,26.00
2022-10-06T15:32:18.661Z,26.00
2022-10-06T15:34:45.289Z,25.80
2022-10-06T15:37:11.920Z,25.80
2022-10-06T15:39:38.572Z,25.70
2022-10-06T15:42:06.150Z,25.50
2022-10-06T15:44:36.305Z,25.70
2022-10-06T15:47:05.526Z,25.60
2022-10-06T15:49:37.491Z,25.60
2022-10-06T15:52:05.225Z,25.70
2022-10-06T15:54:48.494Z,25.60
2022-10-06T15:57:20.405Z,25.50
2022-10-06T15:59:48.176Z,25.60
2022-10-06T16:02:16.750Z,25.90
2022-10-06T16:04:44.875Z,25.90
2022-10-06T16:07:14.256Z,26.40
2022-10-06T16:09:51.225Z,26.30
2022-10-06T16:12:21.268Z,26.80
2022-10-06T16:14:48.083Z,27.20
2022-10-06T16:17:15.566Z,28.00
2022-10-06T16:19:42.248Z,28.40
2022-10-06T16:22:11.930Z,28.70
2022-10-06T16:24:41.204Z,29.30
2022-10-06T16:27:11.382Z,29.70
2022-10-06T16:29:38.012Z,29.90
2022-10-06T16:32:06.402Z,30.30
2022-10-06T16:34:33.550Z,30.90
2022-10-06T16:37:02.208Z,31.80
2022-10-06T16:39:28.831Z,32.60
2022-10-06T16:41:58.385Z,32.70
2022-10-06T16:44:25.026Z,33.60
2022-10-06T16:46:51.663Z,34.10
2022-10-06T16:49:18.576Z,34.30
2022-10-06T16:51:47.945Z,34.80
2022-10-06T16:54:16.958Z,35.40
2022-10-06T16:56:54.423Z,36.20
2022-10-06T16:59:23.173Z,37.10
2022-10-06T17:01:50.577Z,37.50
2022-10-06T17:04:22.051Z,38.00
2022-10-06T17:06:51.245Z,38.60
2022-10-06T17:09:19.734Z,39.00
2022-10-06T17:11:50.191Z,39.70
2022-10-06T17:14:21.429Z,40.30
2022-10-06T17:16:52.532Z,41.40
2022-10-06T17:19:21.297Z,41.30
2022-10-06T17:21:58.532Z,41.70
2022-10-06T17:24:27.864Z,42.00
2022-10-06T17:26:55.579Z,42.30
2022-10-06T17:29:23.309Z,42.70
2022-10-06T17:31:55.930Z,43.00
2022-10-06T17:34:30.425Z,43.50
2022-10-06T17:37:05.851Z,44.00
2022-10-06T17:39:34.872Z,44.10
2022-10-06T17:42:11.657Z,44.50
2022-10-06T17:44:39.498Z,45.00
2022-10-06T17:47:06.957Z,45.20
2022-10-06T17:49:41.977Z,45.40
2022-10-06T17:52:12.154Z,45.80
2022-10-06T17:54:48.454Z,46.20
2022-10-06T17:57:15.036Z,46.60
2022-10-06T17:59:41.650Z,46.70
2022-10-06T18:02:15.001Z,47.00
2022-10-06T18:04:47.014Z,47.40
2022-10-06T18:07:13.642Z,47.40
2022-10-06T18:10:00.405Z,47.80
2022-10-06T18:12:27.323Z,47.80
2022-10-06T18:14:56.275Z,48.00
2022-10-06T18:17:25.308Z,48.30
2022-10-06T18:19:51.956Z,48.60
2022-10-06T18:22:18.553Z,48.60
2022-10-06T18:24:45.182Z,48.80
2022-10-06T18:27:16.890Z,49.00
2022-10-06T18:29:45.782Z,49.10
2022-10-06T18:33:59.408Z,49.60
2022-10-06T18:37:53.064Z,49.70
2022-10-06T18:40:22.372Z,49.80
2022-10-06T18:42:49.006Z,50.00
2022-10-06T18:45:39.415Z,50.30
2022-10-06T18:48:28.803Z,50.50
2022-10-06T18:51:01.710Z,50.50
2022-10-06T18:53:32.556Z,51.30
2022-10-06T18:56:06.792Z,51.20
2022-10-06T18:58:40.386Z,51.00
2022-10-06T19:01:12.591Z,51.60
2022-10-06T19:03:40.097Z,51.50
2022-10-06T19:06:07.145Z,51.40
2022-10-06T19:08:37.001Z,51.60
2022-10-06T19:11:24.718Z,51.70
2022-10-06T19:13:54.679Z,51.90
2022-10-06T19:16:21.356Z,51.90
2022-10-06T19:18:48.109Z,52.00
2022-10-06T19:21:14.770Z,52.10
2022-10-06T19:23:41.575Z,52.20
2022-10-06T19:26:14.181Z,52.30
2022-10-06T19:28:40.969Z,52.30
2022-10-06T19:31:14.867Z,52.30
2022-10-06T19:33:41.823Z,52.80
2022-10-06T19:36:14.290Z,52.60
2022-10-06T19:38:41.018Z,52.60
2022-10-06T19:41:26.115Z,52.30
2022-10-06T19:43:53.035Z,52.10
2022-10-06T19:46:24.514Z,52.30
2022-10-06T19:48:52.968Z,52.60
2022-10-06T19:51:23.846Z,52.50
2022-10-06T19:53:51.324Z,52.60
2022-10-06T19:56:23.273Z,52.90
2022-10-06T19:58:50.238Z,53.10
2022-10-06T20:01:19.303Z,53.20
2022-10-06T20:03:46.239Z,53.30
2022-10-06T20:06:16.952Z,53.40
2022-10-06T20:08:46.387Z,53.70
2022-10-06T20:11:15.508Z,53.60
2022-10-06T20:13:43.854Z,53.90
2022-10-06T20:16:14.433Z,54.00
2022-10-06T20:18:42.136Z,54.00
2022-10-06T20:21:15.782Z,54.10
2022-10-06T20:23:47.629Z,54.40
2022-10-06T20:26:17.383Z,54.40
2022-10-06T20:28:45.376Z,54.00
2022-10-06T20:31:19.909Z,54.10
2022-10-06T20:33:49.237Z,54.90
2022-10-06T20:36:17.541Z,54.60
2022-10-06T20:39:05.717Z,54.70
2022-10-06T20:41:33.342Z,54.70
2022-10-06T20:44:03.631Z,54.70
2022-10-06T20:46:35.228Z,54.80
2022-10-06T20:49:04.654Z,54.90
2022-10-06T20:51:32.484Z,54.90
2022-10-06T20:54:00.340Z,54.90
2022-10-06T20:56:27.174Z,55.00
2022-10-06T20:59:00.166Z,55.10
2022-10-06T21:01:30.340Z,55.40
2022-10-06T21:03:57.193Z,55.40
2022-10-06T21:06:24.084Z,55.60
2022-10-06T21:08:51.425Z,55.70
2022-10-06T21:11:20.313Z,55.70
2022-10-06T21:13:51.516Z,55.80
2022-10-06T21:16:20.880Z,55.70
2022-10-06T21:18:49.906Z,55.70
2022-10-06T21:21:17.222Z,55.60
2022-10-06T21:23:46.177Z,55.60
2022-10-06T21:26:15.949Z,55.70
2022-10-06T21:28:42.971Z,55.70
2022-10-06T21:31:18.234Z,55.70
2022-10-06T21:33:46.125Z,55.70
2022-10-06T21:36:23.722Z,55.60
2022-10-06T21:38:55.257Z,56.10
2022-10-06T21:41:28.098Z,55.90
2022-10-06T21:44:02.633Z,56.50
2022-10-06T21:46:34.973Z,55.80
2022-10-06T21:49:02.233Z,56.20
2022-10-06T21:51:30.629Z,55.90
2022-10-06T21:53:59.208Z,55.40
2022-10-06T21:56:29.325Z,55.60
2022-10-06T21:58:58.733Z,55.70
2022-10-06T22:01:37.486Z,55.70
2022-10-06T22:04:04.393Z,56.00
2022-10-06T22:06:33.200Z,55.90
2022-10-06T22:09:00.858Z,56.10
2022-10-06T22:11:34.317Z,56.00
2022-10-06T22:14:03.256Z,56.20
2022-10-06T22:16:32.378Z,56.40
2022-10-06T22:19:00.766Z,56.30
2022-10-06T22:21:29.395Z,56.40
2022-10-06T22:24:01.237Z,56.40
2022-10-06T22:26:29.418Z,56.40
2022-10-06T22:28:57.831Z,56.50
2022-10-06T22:31:26.472Z,56.60
2022-10-06T22:33:58.829Z,56.60
2022-10-06T22:36:26.999Z,57.00
2022-10-06T22:38:54.856Z,56.60
2022-10-06T22:41:21.745Z,56.70
2022-10-06T22:43:52.765Z,56.90
2022-10-06T22:46:19.526Z,56.90
2022-10-06T22:48:46.110Z,57.10
2022-10-06T22:51:13.081Z,57.30
2022-10-06T22:53:39.690Z,57.40
2022-10-06T22:56:08.837Z,57.30
2022-10-06T22:58:35.617Z,57.30
2022-10-06T23:01:13.849Z,57.50
2022-10-06T23:03:41.143Z,58.30
2022-10-06T23:06:10.757Z,57.80
2022-10-06T23:08:38.158Z,58.10
2022-10-06T23:11:05.800Z,58.20
2022-10-06T23:13:41.122Z,58.50
2022-10-06T23:16:10.922Z,58.70
2022-10-06T23:18:39.613Z,58.80
2022-10-06T23:21:13.778Z,58.90
2022-10-06T23:23:40.376Z,58.90
2022-10-06T23:26:09.658Z,58.80
2022-10-06T23:28:37.124Z,58.90
2022-10-06T23:31:05.364Z,58.80
2022-10-06T23:33:32.969Z,58.80
2022-10-06T23:36:04.609Z,58.60
2022-10-06T23:38:31.363Z,58.60
2022-10-06T23:40:58.033Z,58.40
2022-10-06T23:43:24.596Z,58.40
2022-10-06T23:45:51.393Z,58.30
2022-10-06T23:48:18.121Z,58.20
2022-10-06T23:51:00.888Z,58.10
2022-10-06T23:53:30.797Z,58.70
2022-10-06T23:55:57.773Z,58.30
2022-10-06T23:58:24.757Z,58.20
